sensor_id;sensor_type;location;lat;lon;timestamp;P1;durP1;ratioP1;P2;durP2;ratioP2
74100;SDS011;62462;52.530;21.682;2023-02-04T00:01:39;11.70;;;5.70;;
74100;SDS011;62462;52.530;21.682;2023-02-04T00:04:04;8.27;;;5.17;;
74100;SDS011;62462;52.530;21.682;2023-02-04T00:06:30;10.03;;;4.97;;
74100;SDS011;62462;52.530;21.682;2023-02-04T00:08:56;10.53;;;5.23;;
74100;SDS011;62462;52.530;21.682;2023-02-04T00:11:21;10.00;;;5.13;;
74100;SDS011;62462;52.530;21.682;2023-02-04T00:13:47;7.90;;;4.57;;
74100;SDS011;62462;52.530;21.682;2023-02-04T00:16:13;9.63;;;5.23;;
74100;SDS011;62462;52.530;21.682;2023-02-04T00:18:38;9.33;;;5.20;;
74100;SDS011;62462;52.530;21.682;2023-02-04T00:21:04;11.17;;;5.53;;
74100;SDS011;62462;52.530;21.682;2023-02-04T00:23:30;11.37;;;6.03;;
74100;SDS011;62462;52.530;21.682;2023-02-04T00:25:56;11.10;;;5.63;;
74100;SDS011;62462;52.530;21.682;2023-02-04T00:28:21;10.20;;;5.47;;
74100;SDS011;62462;52.530;21.682;2023-02-04T00:30:47;9.97;;;5.40;;
74100;SDS011;62462;52.530;21.682;2023-02-04T00:33:13;10.17;;;5.77;;
74100;SDS011;62462;52.530;21.682;2023-02-04T00:35:38;8.50;;;5.40;;
74100;SDS011;62462;52.530;21.682;2023-02-04T00:38:04;9.63;;;5.43;;
74100;SDS011;62462;52.530;21.682;2023-02-04T00:40:31;10.73;;;5.57;;
74100;SDS011;62462;52.530;21.682;2023-02-04T00:42:57;10.00;;;5.60;;
74100;SDS011;62462;52.530;21.682;2023-02-04T00:45:23;11.77;;;5.53;;
74100;SDS011;62462;52.530;21.682;2023-02-04T00:47:49;9.33;;;5.60;;
74100;SDS011;62462;52.530;21.682;2023-02-04T00:50:15;10.27;;;5.87;;
74100;SDS011;62462;52.530;21.682;2023-02-04T00:52:41;9.77;;;5.57;;
74100;SDS011;62462;52.530;21.682;2023-02-04T00:55:07;11.50;;;6.10;;
74100;SDS011;62462;52.530;21.682;2023-02-04T00:57:35;9.20;;;5.30;;
74100;SDS011;62462;52.530;21.682;2023-02-04T01:00:02;12.00;;;5.53;;
74100;SDS011;62462;52.530;21.682;2023-02-04T01:02:29;8.93;;;5.30;;
74100;SDS011;62462;52.530;21.682;2023-02-04T01:04:55;8.90;;;4.87;;
74100;SDS011;62462;52.530;21.682;2023-02-04T01:07:20;8.90;;;5.13;;
74100;SDS011;62462;52.530;21.682;2023-02-04T01:09:46;9.43;;;5.03;;
74100;SDS011;62462;52.530;21.682;2023-02-04T01:12:12;9.90;;;5.30;;
74100;SDS011;62462;52.530;21.682;2023-02-04T01:14:37;9.83;;;4.73;;
74100;SDS011;62462;52.530;21.682;2023-02-04T01:17:03;7.77;;;4.50;;
74100;SDS011;62462;52.530;21.682;2023-02-04T01:19:29;8.80;;;4.90;;
74100;SDS011;62462;52.530;21.682;2023-02-04T01:21:54;8.03;;;4.50;;
74100;SDS011;62462;52.530;21.682;2023-02-04T01:24:20;10.00;;;4.67;;
74100;SDS011;62462;52.530;21.682;2023-02-04T01:26:46;9.53;;;5.00;;
74100;SDS011;62462;52.530;21.682;2023-02-04T01:29:11;9.47;;;4.23;;
74100;SDS011;62462;52.530;21.682;2023-02-04T01:31:37;7.73;;;4.10;;
74100;SDS011;62462;52.530;21.682;2023-02-04T01:34:02;8.77;;;4.10;;
74100;SDS011;62462;52.530;21.682;2023-02-04T01:36:28;7.57;;;4.43;;
74100;SDS011;62462;52.530;21.682;2023-02-04T01:38:54;8.23;;;4.30;;
74100;SDS011;62462;52.530;21.682;2023-02-04T01:41:19;7.20;;;3.70;;
74100;SDS011;62462;52.530;21.682;2023-02-04T01:43:46;6.57;;;3.93;;
74100;SDS011;62462;52.530;21.682;2023-02-04T01:46:12;9.03;;;4.03;;
74100;SDS011;62462;52.530;21.682;2023-02-04T01:48:39;7.27;;;3.90;;
74100;SDS011;62462;52.530;21.682;2023-02-04T01:51:06;8.57;;;3.90;;
74100;SDS011;62462;52.530;21.682;2023-02-04T01:53:35;8.27;;;4.13;;
74100;SDS011;62462;52.530;21.682;2023-02-04T01:56:14;5.67;;;3.50;;
74100;SDS011;62462;52.530;21.682;2023-02-04T01:58:42;10.00;;;4.00;;
74100;SDS011;62462;52.530;21.682;2023-02-04T02:01:10;6.53;;;3.30;;
74100;SDS011;62462;52.530;21.682;2023-02-04T02:03:39;10.03;;;3.73;;
74100;SDS011;62462;52.530;21.682;2023-02-04T02:06:05;5.67;;;3.80;;
74100;SDS011;62462;52.530;21.682;2023-02-04T02:08:34;10.53;;;4.07;;
74100;SDS011;62462;52.530;21.682;2023-02-04T02:11:02;8.63;;;4.23;;
74100;SDS011;62462;52.530;21.682;2023-02-04T02:13:28;7.17;;;3.83;;
74100;SDS011;62462;52.530;21.682;2023-02-04T02:15:54;8.00;;;4.07;;
74100;SDS011;62462;52.530;21.682;2023-02-04T02:18:19;7.63;;;3.93;;
74100;SDS011;62462;52.530;21.682;2023-02-04T02:20:46;6.90;;;4.00;;
74100;SDS011;62462;52.530;21.682;2023-02-04T02:25:48;6.60;;;3.70;;
74100;SDS011;62462;52.530;21.682;2023-02-04T02:28:16;6.60;;;3.87;;
74100;SDS011;62462;52.530;21.682;2023-02-04T02:30:44;6.37;;;4.10;;
74100;SDS011;62462;52.530;21.682;2023-02-04T02:33:13;9.30;;;3.97;;
74100;SDS011;62462;52.530;21.682;2023-02-04T02:35:41;7.37;;;3.87;;
74100;SDS011;62462;52.530;21.682;2023-02-04T02:38:11;7.60;;;3.90;;
74100;SDS011;62462;52.530;21.682;2023-02-04T02:40:36;5.90;;;3.37;;
74100;SDS011;62462;52.530;21.682;2023-02-04T02:43:03;7.40;;;3.57;;
74100;SDS011;62462;52.530;21.682;2023-02-04T02:45:30;9.43;;;3.87;;
74100;SDS011;62462;52.530;21.682;2023-02-04T02:47:58;8.20;;;3.67;;
74100;SDS011;62462;52.530;21.682;2023-02-04T02:50:28;6.13;;;3.33;;
74100;SDS011;62462;52.530;21.682;2023-02-04T02:52:54;6.97;;;4.20;;
74100;SDS011;62462;52.530;21.682;2023-02-04T02:55:21;9.50;;;3.63;;
74100;SDS011;62462;52.530;21.682;2023-02-04T02:57:50;6.97;;;3.73;;
74100;SDS011;62462;52.530;21.682;2023-02-04T03:00:18;6.63;;;3.63;;
74100;SDS011;62462;52.530;21.682;2023-02-04T03:02:48;4.63;;;2.90;;
74100;SDS011;62462;52.530;21.682;2023-02-04T03:05:41;7.10;;;3.33;;
74100;SDS011;62462;52.530;21.682;2023-02-04T03:08:10;7.53;;;3.63;;
74100;SDS011;62462;52.530;21.682;2023-02-04T03:10:38;4.23;;;3.07;;
74100;SDS011;62462;52.530;21.682;2023-02-04T03:13:03;5.97;;;3.70;;
74100;SDS011;62462;52.530;21.682;2023-02-04T03:15:30;7.63;;;3.77;;
74100;SDS011;62462;52.530;21.682;2023-02-04T03:17:56;6.67;;;3.43;;
74100;SDS011;62462;52.530;21.682;2023-02-04T03:20:24;10.00;;;4.70;;
74100;SDS011;62462;52.530;21.682;2023-02-04T03:22:52;15.00;;;8.60;;
74100;SDS011;62462;52.530;21.682;2023-02-04T03:25:19;11.00;;;5.60;;
74100;SDS011;62462;52.530;21.682;2023-02-04T03:27:45;6.50;;;3.67;;
74100;SDS011;62462;52.530;21.682;2023-02-04T03:30:12;7.17;;;3.40;;
74100;SDS011;62462;52.530;21.682;2023-02-04T03:32:38;9.63;;;3.97;;
74100;SDS011;62462;52.530;21.682;2023-02-04T03:35:05;6.63;;;3.90;;
74100;SDS011;62462;52.530;21.682;2023-02-04T03:37:31;6.13;;;3.27;;
74100;SDS011;62462;52.530;21.682;2023-02-04T03:39:57;7.77;;;3.27;;
74100;SDS011;62462;52.530;21.682;2023-02-04T03:42:22;7.93;;;3.30;;
74100;SDS011;62462;52.530;21.682;2023-02-04T03:44:49;6.13;;;3.20;;
74100;SDS011;62462;52.530;21.682;2023-02-04T03:47:15;7.27;;;3.87;;
74100;SDS011;62462;52.530;21.682;2023-02-04T03:49:40;7.33;;;3.30;;
74100;SDS011;62462;52.530;21.682;2023-02-04T03:52:06;7.23;;;3.50;;
74100;SDS011;62462;52.530;21.682;2023-02-04T03:54:32;6.53;;;3.20;;
74100;SDS011;62462;52.530;21.682;2023-02-04T03:56:57;7.93;;;3.00;;
74100;SDS011;62462;52.530;21.682;2023-02-04T03:59:23;6.07;;;3.20;;
74100;SDS011;62462;52.530;21.682;2023-02-04T04:01:49;5.60;;;3.20;;
74100;SDS011;62462;52.530;21.682;2023-02-04T04:04:16;5.00;;;3.10;;
74100;SDS011;62462;52.530;21.682;2023-02-04T04:06:42;6.47;;;3.00;;
74100;SDS011;62462;52.530;21.682;2023-02-04T04:09:08;7.87;;;3.27;;
74100;SDS011;62462;52.530;21.682;2023-02-04T04:11:33;4.40;;;2.70;;
74100;SDS011;62462;52.530;21.682;2023-02-04T04:13:59;6.27;;;3.33;;
74100;SDS011;62462;52.530;21.682;2023-02-04T04:16:26;7.10;;;3.27;;
74100;SDS011;62462;52.530;21.682;2023-02-04T04:18:52;4.73;;;3.17;;
74100;SDS011;62462;52.530;21.682;2023-02-04T04:21:18;6.37;;;3.57;;
74100;SDS011;62462;52.530;21.682;2023-02-04T04:23:43;6.40;;;3.73;;
74100;SDS011;62462;52.530;21.682;2023-02-04T04:26:09;8.03;;;4.23;;
74100;SDS011;62462;52.530;21.682;2023-02-04T04:28:35;7.50;;;4.43;;
74100;SDS011;62462;52.530;21.682;2023-02-04T04:31:00;6.70;;;4.10;;
74100;SDS011;62462;52.530;21.682;2023-02-04T04:33:26;10.23;;;5.00;;
74100;SDS011;62462;52.530;21.682;2023-02-04T04:35:52;6.87;;;4.47;;
74100;SDS011;62462;52.530;21.682;2023-02-04T04:38:17;10.53;;;5.10;;
74100;SDS011;62462;52.530;21.682;2023-02-04T04:40:43;8.40;;;4.87;;
74100;SDS011;62462;52.530;21.682;2023-02-04T04:43:09;8.20;;;4.40;;
74100;SDS011;62462;52.530;21.682;2023-02-04T04:45:34;11.27;;;5.07;;
74100;SDS011;62462;52.530;21.682;2023-02-04T04:48:00;9.10;;;4.70;;
74100;SDS011;62462;52.530;21.682;2023-02-04T04:50:26;9.13;;;4.80;;
74100;SDS011;62462;52.530;21.682;2023-02-04T04:52:51;20.67;;;5.47;;
74100;SDS011;62462;52.530;21.682;2023-02-04T04:55:17;9.43;;;4.40;;
74100;SDS011;62462;52.530;21.682;2023-02-04T04:57:43;6.90;;;4.40;;
74100;SDS011;62462;52.530;21.682;2023-02-04T05:00:10;7.87;;;4.80;;
74100;SDS011;62462;52.530;21.682;2023-02-04T05:02:39;7.83;;;4.30;;
74100;SDS011;62462;52.530;21.682;2023-02-04T05:05:05;8.17;;;4.43;;
74100;SDS011;62462;52.530;21.682;2023-02-04T05:07:30;7.53;;;4.00;;
74100;SDS011;62462;52.530;21.682;2023-02-04T05:09:56;8.97;;;4.63;;
74100;SDS011;62462;52.530;21.682;2023-02-04T05:12:22;7.00;;;3.77;;
74100;SDS011;62462;52.530;21.682;2023-02-04T05:14:47;11.07;;;4.10;;
74100;SDS011;62462;52.530;21.682;2023-02-04T05:17:13;6.03;;;4.10;;
74100;SDS011;62462;52.530;21.682;2023-02-04T05:19:39;6.93;;;3.77;;
74100;SDS011;62462;52.530;21.682;2023-02-04T05:22:04;6.40;;;3.70;;
74100;SDS011;62462;52.530;21.682;2023-02-04T05:24:30;8.67;;;3.83;;
74100;SDS011;62462;52.530;21.682;2023-02-04T05:26:56;7.30;;;3.97;;
74100;SDS011;62462;52.530;21.682;2023-02-04T05:29:21;8.33;;;4.40;;
74100;SDS011;62462;52.530;21.682;2023-02-04T05:31:47;7.73;;;4.23;;
74100;SDS011;62462;52.530;21.682;2023-02-04T05:34:13;8.17;;;3.93;;
74100;SDS011;62462;52.530;21.682;2023-02-04T05:36:38;6.20;;;3.60;;
74100;SDS011;62462;52.530;21.682;2023-02-04T05:39:04;8.70;;;4.50;;
74100;SDS011;62462;52.530;21.682;2023-02-04T05:41:30;8.53;;;4.00;;
74100;SDS011;62462;52.530;21.682;2023-02-04T05:43:55;8.00;;;4.13;;
74100;SDS011;62462;52.530;21.682;2023-02-04T05:46:21;7.60;;;3.47;;
74100;SDS011;62462;52.530;21.682;2023-02-04T05:48:47;7.33;;;3.90;;
74100;SDS011;62462;52.530;21.682;2023-02-04T05:51:12;8.23;;;3.70;;
74100;SDS011;62462;52.530;21.682;2023-02-04T05:53:38;8.90;;;3.70;;
74100;SDS011;62462;52.530;21.682;2023-02-04T05:56:04;10.10;;;4.03;;
74100;SDS011;62462;52.530;21.682;2023-02-04T05:58:29;8.07;;;4.60;;
74100;SDS011;62462;52.530;21.682;2023-02-04T06:01:00;7.83;;;4.50;;
74100;SDS011;62462;52.530;21.682;2023-02-04T06:03:27;9.00;;;4.47;;
74100;SDS011;62462;52.530;21.682;2023-02-04T06:05:53;7.60;;;4.70;;
74100;SDS011;62462;52.530;21.682;2023-02-04T06:08:19;10.07;;;5.13;;
74100;SDS011;62462;52.530;21.682;2023-02-04T06:10:45;8.00;;;5.03;;
74100;SDS011;62462;52.530;21.682;2023-02-04T06:13:11;8.60;;;4.63;;
74100;SDS011;62462;52.530;21.682;2023-02-04T06:15:36;10.10;;;5.23;;
74100;SDS011;62462;52.530;21.682;2023-02-04T06:18:03;11.70;;;5.30;;
74100;SDS011;62462;52.530;21.682;2023-02-04T06:20:29;8.93;;;4.83;;
74100;SDS011;62462;52.530;21.682;2023-02-04T06:22:54;11.33;;;5.23;;
74100;SDS011;62462;52.530;21.682;2023-02-04T06:25:20;8.13;;;4.40;;
74100;SDS011;62462;52.530;21.682;2023-02-04T06:27:46;9.77;;;5.13;;
74100;SDS011;62462;52.530;21.682;2023-02-04T06:30:12;12.80;;;4.67;;
74100;SDS011;62462;52.530;21.682;2023-02-04T06:32:39;8.20;;;4.30;;
74100;SDS011;62462;52.530;21.682;2023-02-04T06:35:05;10.90;;;4.23;;
74100;SDS011;62462;52.530;21.682;2023-02-04T06:37:30;7.07;;;4.17;;
74100;SDS011;62462;52.530;21.682;2023-02-04T06:39:56;7.60;;;4.00;;
74100;SDS011;62462;52.530;21.682;2023-02-04T06:42:22;8.67;;;4.07;;
74100;SDS011;62462;52.530;21.682;2023-02-04T06:44:49;6.70;;;3.60;;
74100;SDS011;62462;52.530;21.682;2023-02-04T06:47:15;9.23;;;4.17;;
74100;SDS011;62462;52.530;21.682;2023-02-04T06:49:41;6.30;;;3.30;;
74100;SDS011;62462;52.530;21.682;2023-02-04T06:52:07;6.70;;;3.47;;
74100;SDS011;62462;52.530;21.682;2023-02-04T06:54:32;7.37;;;3.17;;
74100;SDS011;62462;52.530;21.682;2023-02-04T06:56:58;5.30;;;3.57;;
74100;SDS011;62462;52.530;21.682;2023-02-04T06:59:31;5.47;;;3.10;;
74100;SDS011;62462;52.530;21.682;2023-02-04T07:01:58;7.37;;;3.77;;
74100;SDS011;62462;52.530;21.682;2023-02-04T07:04:24;5.77;;;3.47;;
74100;SDS011;62462;52.530;21.682;2023-02-04T07:06:49;6.03;;;2.87;;
74100;SDS011;62462;52.530;21.682;2023-02-04T07:09:15;4.47;;;2.97;;
74100;SDS011;62462;52.530;21.682;2023-02-04T07:11:41;6.93;;;2.93;;
74100;SDS011;62462;52.530;21.682;2023-02-04T07:14:06;5.23;;;2.67;;
74100;SDS011;62462;52.530;21.682;2023-02-04T07:16:34;5.47;;;2.53;;
74100;SDS011;62462;52.530;21.682;2023-02-04T07:19:00;5.83;;;2.70;;
74100;SDS011;62462;52.530;21.682;2023-02-04T07:21:25;6.77;;;2.63;;
74100;SDS011;62462;52.530;21.682;2023-02-04T07:23:51;5.17;;;3.07;;
74100;SDS011;62462;52.530;21.682;2023-02-04T07:26:17;7.87;;;3.70;;
74100;SDS011;62462;52.530;21.682;2023-02-04T07:28:43;6.20;;;2.40;;
74100;SDS011;62462;52.530;21.682;2023-02-04T07:31:09;6.10;;;3.30;;
74100;SDS011;62462;52.530;21.682;2023-02-04T07:33:34;5.10;;;2.37;;
74100;SDS011;62462;52.530;21.682;2023-02-04T07:36:00;5.83;;;2.00;;
74100;SDS011;62462;52.530;21.682;2023-02-04T07:38:26;4.10;;;1.90;;
74100;SDS011;62462;52.530;21.682;2023-02-04T07:40:52;5.07;;;2.40;;
74100;SDS011;62462;52.530;21.682;2023-02-04T07:43:18;5.63;;;2.30;;
74100;SDS011;62462;52.530;21.682;2023-02-04T07:45:43;6.13;;;3.80;;
74100;SDS011;62462;52.530;21.682;2023-02-04T07:48:09;6.80;;;2.10;;
74100;SDS011;62462;52.530;21.682;2023-02-04T07:50:35;3.43;;;1.90;;
74100;SDS011;62462;52.530;21.682;2023-02-04T07:53:01;6.23;;;3.70;;
74100;SDS011;62462;52.530;21.682;2023-02-04T07:55:27;23.13;;;13.67;;
74100;SDS011;62462;52.530;21.682;2023-02-04T07:57:53;5.10;;;2.17;;
74100;SDS011;62462;52.530;21.682;2023-02-04T08:00:20;5.77;;;2.77;;
74100;SDS011;62462;52.530;21.682;2023-02-04T08:02:46;5.50;;;2.53;;
74100;SDS011;62462;52.530;21.682;2023-02-04T08:05:12;8.00;;;4.80;;
74100;SDS011;62462;52.530;21.682;2023-02-04T08:07:38;7.33;;;4.00;;
74100;SDS011;62462;52.530;21.682;2023-02-04T08:10:04;6.97;;;3.53;;
74100;SDS011;62462;52.530;21.682;2023-02-04T08:12:31;7.57;;;3.10;;
74100;SDS011;62462;52.530;21.682;2023-02-04T08:14:56;6.80;;;4.00;;
74100;SDS011;62462;52.530;21.682;2023-02-04T08:17:22;9.67;;;5.47;;
74100;SDS011;62462;52.530;21.682;2023-02-04T08:19:49;7.47;;;3.60;;
74100;SDS011;62462;52.530;21.682;2023-02-04T08:22:15;5.88;;;3.63;;
74100;SDS011;62462;52.530;21.682;2023-02-04T08:24:41;9.27;;;4.27;;
74100;SDS011;62462;52.530;21.682;2023-02-04T08:27:07;6.93;;;3.13;;
74100;SDS011;62462;52.530;21.682;2023-02-04T08:29:32;8.63;;;4.00;;
74100;SDS011;62462;52.530;21.682;2023-02-04T08:31:58;6.43;;;3.60;;
74100;SDS011;62462;52.530;21.682;2023-02-04T08:34:24;5.80;;;3.17;;
74100;SDS011;62462;52.530;21.682;2023-02-04T08:36:49;12.05;;;7.55;;
74100;SDS011;62462;52.530;21.682;2023-02-04T08:39:15;10.70;;;5.10;;
74100;SDS011;62462;52.530;21.682;2023-02-04T08:41:41;7.53;;;3.50;;
74100;SDS011;62462;52.530;21.682;2023-02-04T08:44:06;7.70;;;3.95;;
74100;SDS011;62462;52.530;21.682;2023-02-04T08:46:33;6.88;;;3.80;;
74100;SDS011;62462;52.530;21.682;2023-02-04T08:48:59;7.23;;;3.80;;
74100;SDS011;62462;52.530;21.682;2023-02-04T08:51:24;7.67;;;3.13;;
74100;SDS011;62462;52.530;21.682;2023-02-04T08:53:50;3.07;;;1.93;;
74100;SDS011;62462;52.530;21.682;2023-02-04T08:56:16;5.37;;;3.30;;
74100;SDS011;62462;52.530;21.682;2023-02-04T08:58:44;3.90;;;2.10;;
74100;SDS011;62462;52.530;21.682;2023-02-04T09:01:12;5.60;;;1.90;;
74100;SDS011;62462;52.530;21.682;2023-02-04T09:03:38;8.00;;;3.00;;
74100;SDS011;62462;52.530;21.682;2023-02-04T09:06:04;4.13;;;1.80;;
74100;SDS011;62462;52.530;21.682;2023-02-04T09:08:31;4.33;;;2.30;;
74100;SDS011;62462;52.530;21.682;2023-02-04T09:10:58;4.97;;;2.67;;
74100;SDS011;62462;52.530;21.682;2023-02-04T09:13:24;3.67;;;1.95;;
74100;SDS011;62462;52.530;21.682;2023-02-04T09:16:03;4.72;;;1.63;;
74100;SDS011;62462;52.530;21.682;2023-02-04T09:18:28;7.03;;;1.75;;
74100;SDS011;62462;52.530;21.682;2023-02-04T09:21:14;8.80;;;6.03;;
74100;SDS011;62462;52.530;21.682;2023-02-04T09:23:40;8.13;;;4.53;;
74100;SDS011;62462;52.530;21.682;2023-02-04T09:26:18;4.50;;;2.28;;
74100;SDS011;62462;52.530;21.682;2023-02-04T09:28:44;3.10;;;1.48;;
74100;SDS011;62462;52.530;21.682;2023-02-04T09:31:11;2.38;;;1.60;;
74100;SDS011;62462;52.530;21.682;2023-02-04T09:33:37;3.70;;;1.60;;
74100;SDS011;62462;52.530;21.682;2023-02-04T09:36:03;2.97;;;1.58;;
74100;SDS011;62462;52.530;21.682;2023-02-04T09:38:29;2.47;;;1.20;;
74100;SDS011;62462;52.530;21.682;2023-02-04T09:40:56;2.22;;;1.20;;
74100;SDS011;62462;52.530;21.682;2023-02-04T09:43:29;2.47;;;1.10;;
74100;SDS011;62462;52.530;21.682;2023-02-04T09:45:57;1.88;;;0.95;;
74100;SDS011;62462;52.530;21.682;2023-02-04T09:48:24;1.77;;;0.90;;
74100;SDS011;62462;52.530;21.682;2023-02-04T09:50:50;2.42;;;1.27;;
74100;SDS011;62462;52.530;21.682;2023-02-04T09:53:20;2.63;;;1.58;;
74100;SDS011;62462;52.530;21.682;2023-02-04T09:55:48;1.80;;;1.10;;
74100;SDS011;62462;52.530;21.682;2023-02-04T09:58:28;2.22;;;1.70;;
74100;SDS011;62462;52.530;21.682;2023-02-04T10:00:59;3.40;;;2.13;;
74100;SDS011;62462;52.530;21.682;2023-02-04T10:03:37;2.40;;;1.60;;
74100;SDS011;62462;52.530;21.682;2023-02-04T10:08:40;3.07;;;2.07;;
74100;SDS011;62462;52.530;21.682;2023-02-04T10:11:07;1.67;;;1.30;;
74100;SDS011;62462;52.530;21.682;2023-02-04T10:13:52;4.73;;;1.30;;
74100;SDS011;62462;52.530;21.682;2023-02-04T10:16:23;3.23;;;2.10;;
74100;SDS011;62462;52.530;21.682;2023-02-04T10:18:57;2.40;;;1.40;;
74100;SDS011;62462;52.530;21.682;2023-02-04T10:21:29;2.83;;;1.40;;
74100;SDS011;62462;52.530;21.682;2023-02-04T10:24:01;2.67;;;1.20;;
74100;SDS011;62462;52.530;21.682;2023-02-04T10:26:30;3.13;;;1.43;;
74100;SDS011;62462;52.530;21.682;2023-02-04T10:28:57;4.40;;;2.37;;
74100;SDS011;62462;52.530;21.682;2023-02-04T10:31:35;3.65;;;1.20;;
74100;SDS011;62462;52.530;21.682;2023-02-04T10:34:03;6.40;;;3.77;;
74100;SDS011;62462;52.530;21.682;2023-02-04T10:36:44;4.43;;;2.40;;
74100;SDS011;62462;52.530;21.682;2023-02-04T10:39:25;5.43;;;2.80;;
74100;SDS011;62462;52.530;21.682;2023-02-04T10:44:52;10.30;;;4.97;;
74100;SDS011;62462;52.530;21.682;2023-02-04T10:49:59;1.70;;;1.10;;
74100;SDS011;62462;52.530;21.682;2023-02-04T10:52:31;1.53;;;1.00;;
74100;SDS011;62462;52.530;21.682;2023-02-04T10:55:09;5.30;;;1.10;;
74100;SDS011;62462;52.530;21.682;2023-02-04T10:57:46;1.87;;;1.00;;
74100;SDS011;62462;52.530;21.682;2023-02-04T11:00:21;40.93;;;16.77;;
74100;SDS011;62462;52.530;21.682;2023-02-04T11:03:01;3.93;;;2.00;;
74100;SDS011;62462;52.530;21.682;2023-02-04T11:05:29;3.83;;;1.50;;
74100;SDS011;62462;52.530;21.682;2023-02-04T11:07:56;4.43;;;1.33;;
74100;SDS011;62462;52.530;21.682;2023-02-04T11:10:23;2.40;;;1.27;;
74100;SDS011;62462;52.530;21.682;2023-02-04T11:20:44;31.30;;;12.67;;
74100;SDS011;62462;52.530;21.682;2023-02-04T11:26:00;24.53;;;11.17;;
74100;SDS011;62462;52.530;21.682;2023-02-04T11:28:28;10.53;;;4.53;;
74100;SDS011;62462;52.530;21.682;2023-02-04T11:42:09;3.20;;;1.60;;
74100;SDS011;62462;52.530;21.682;2023-02-04T11:44:38;4.57;;;2.08;;
74100;SDS011;62462;52.530;21.682;2023-02-04T11:47:06;9.03;;;3.20;;
74100;SDS011;62462;52.530;21.682;2023-02-04T11:49:34;4.87;;;2.00;;
74100;SDS011;62462;52.530;21.682;2023-02-04T11:52:10;6.17;;;2.50;;
74100;SDS011;62462;52.530;21.682;2023-02-04T11:54:38;8.83;;;3.23;;
74100;SDS011;62462;52.530;21.682;2023-02-04T11:57:04;7.00;;;3.33;;
74100;SDS011;62462;52.530;21.682;2023-02-04T11:59:30;28.27;;;14.40;;
74100;SDS011;62462;52.530;21.682;2023-02-04T12:02:13;5.83;;;3.30;;
74100;SDS011;62462;52.530;21.682;2023-02-04T12:05:07;15.50;;;7.07;;
74100;SDS011;62462;52.530;21.682;2023-02-04T12:07:34;7.87;;;3.13;;
74100;SDS011;62462;52.530;21.682;2023-02-04T12:12:43;30.43;;;11.87;;
74100;SDS011;62462;52.530;21.682;2023-02-04T12:15:14;4.10;;;1.80;;
74100;SDS011;62462;52.530;21.682;2023-02-04T12:18:04;1.73;;;0.95;;
74100;SDS011;62462;52.530;21.682;2023-02-04T12:20:37;5.53;;;1.70;;
74100;SDS011;62462;52.530;21.682;2023-02-04T12:23:03;12.17;;;2.67;;
74100;SDS011;62462;52.530;21.682;2023-02-04T12:25:30;4.90;;;1.83;;
74100;SDS011;62462;52.530;21.682;2023-02-04T12:27:56;4.07;;;2.20;;
74100;SDS011;62462;52.530;21.682;2023-02-04T12:30:22;2.47;;;1.63;;
74100;SDS011;62462;52.530;21.682;2023-02-04T12:47:08;11.35;;;5.50;;
74100;SDS011;62462;52.530;21.682;2023-02-04T12:49:34;10.80;;;4.95;;
74100;SDS011;62462;52.530;21.682;2023-02-04T12:52:02;23.73;;;12.13;;
74100;SDS011;62462;52.530;21.682;2023-02-04T12:54:28;5.60;;;3.50;;
74100;SDS011;62462;52.530;21.682;2023-02-04T12:56:54;3.25;;;1.58;;
74100;SDS011;62462;52.530;21.682;2023-02-04T12:59:22;3.35;;;2.10;;
74100;SDS011;62462;52.530;21.682;2023-02-04T13:01:49;5.18;;;2.42;;
74100;SDS011;62462;52.530;21.682;2023-02-04T13:04:15;5.93;;;2.88;;
74100;SDS011;62462;52.530;21.682;2023-02-04T13:06:40;6.05;;;3.42;;
74100;SDS011;62462;52.530;21.682;2023-02-04T13:09:06;4.53;;;1.90;;
74100;SDS011;62462;52.530;21.682;2023-02-04T13:11:32;13.82;;;8.63;;
74100;SDS011;62462;52.530;21.682;2023-02-04T13:13:58;9.73;;;5.32;;
74100;SDS011;62462;52.530;21.682;2023-02-04T13:16:24;13.98;;;9.13;;
74100;SDS011;62462;52.530;21.682;2023-02-04T13:18:50;4.40;;;2.83;;
74100;SDS011;62462;52.530;21.682;2023-02-04T13:21:16;4.38;;;2.05;;
74100;SDS011;62462;52.530;21.682;2023-02-04T13:23:42;3.53;;;2.33;;
74100;SDS011;62462;52.530;21.682;2023-02-04T13:26:08;3.40;;;1.67;;
74100;SDS011;62462;52.530;21.682;2023-02-04T13:28:34;2.30;;;1.23;;
74100;SDS011;62462;52.530;21.682;2023-02-04T13:31:00;2.05;;;1.48;;
74100;SDS011;62462;52.530;21.682;2023-02-04T13:33:26;7.22;;;3.25;;
74100;SDS011;62462;52.530;21.682;2023-02-04T13:35:51;5.30;;;2.33;;
74100;SDS011;62462;52.530;21.682;2023-02-04T13:38:17;4.23;;;1.90;;
74100;SDS011;62462;52.530;21.682;2023-02-04T13:40:43;2.40;;;1.40;;
74100;SDS011;62462;52.530;21.682;2023-02-04T13:43:08;1.97;;;1.17;;
74100;SDS011;62462;52.530;21.682;2023-02-04T13:45:34;3.57;;;1.43;;
74100;SDS011;62462;52.530;21.682;2023-02-04T13:48:00;2.87;;;0.87;;
74100;SDS011;62462;52.530;21.682;2023-02-04T13:50:26;1.90;;;1.10;;
74100;SDS011;62462;52.530;21.682;2023-02-04T13:52:52;2.53;;;1.40;;
74100;SDS011;62462;52.530;21.682;2023-02-04T13:55:19;88.83;;;30.93;;
74100;SDS011;62462;52.530;21.682;2023-02-04T13:57:45;223.13;;;58.63;;
74100;SDS011;62462;52.530;21.682;2023-02-04T14:00:11;120.43;;;34.90;;
74100;SDS011;62462;52.530;21.682;2023-02-04T14:02:37;72.83;;;25.90;;
74100;SDS011;62462;52.530;21.682;2023-02-04T14:05:03;81.87;;;26.23;;
74100;SDS011;62462;52.530;21.682;2023-02-04T14:07:29;38.10;;;13.90;;
74100;SDS011;62462;52.530;21.682;2023-02-04T14:09:54;38.43;;;16.93;;
74100;SDS011;62462;52.530;21.682;2023-02-04T14:12:20;40.70;;;20.10;;
74100;SDS011;62462;52.530;21.682;2023-02-04T14:14:46;10.73;;;6.43;;
74100;SDS011;62462;52.530;21.682;2023-02-04T14:17:12;31.70;;;16.47;;
74100;SDS011;62462;52.530;21.682;2023-02-04T14:19:37;15.40;;;7.60;;
74100;SDS011;62462;52.530;21.682;2023-02-04T14:22:03;14.30;;;7.13;;
74100;SDS011;62462;52.530;21.682;2023-02-04T14:24:29;53.87;;;22.43;;
74100;SDS011;62462;52.530;21.682;2023-02-04T14:26:55;37.13;;;15.57;;
74100;SDS011;62462;52.530;21.682;2023-02-04T14:29:20;28.20;;;12.47;;
74100;SDS011;62462;52.530;21.682;2023-02-04T14:31:46;43.63;;;20.87;;
74100;SDS011;62462;52.530;21.682;2023-02-04T14:34:12;32.47;;;13.67;;
74100;SDS011;62462;52.530;21.682;2023-02-04T14:36:38;8.17;;;4.30;;
74100;SDS011;62462;52.530;21.682;2023-02-04T14:39:04;7.43;;;3.73;;
74100;SDS011;62462;52.530;21.682;2023-02-04T14:41:29;6.87;;;3.93;;
74100;SDS011;62462;52.530;21.682;2023-02-04T14:43:55;4.67;;;2.20;;
74100;SDS011;62462;52.530;21.682;2023-02-04T14:46:21;3.03;;;1.90;;
74100;SDS011;62462;52.530;21.682;2023-02-04T14:48:47;16.00;;;7.53;;
74100;SDS011;62462;52.530;21.682;2023-02-04T14:51:15;4.30;;;2.80;;
74100;SDS011;62462;52.530;21.682;2023-02-04T14:53:42;4.40;;;2.53;;
74100;SDS011;62462;52.530;21.682;2023-02-04T14:56:07;4.30;;;2.40;;
74100;SDS011;62462;52.530;21.682;2023-02-04T14:58:33;6.77;;;3.47;;
74100;SDS011;62462;52.530;21.682;2023-02-04T15:00:59;4.73;;;2.83;;
74100;SDS011;62462;52.530;21.682;2023-02-04T15:03:25;4.60;;;3.10;;
74100;SDS011;62462;52.530;21.682;2023-02-04T15:05:50;7.20;;;4.20;;
74100;SDS011;62462;52.530;21.682;2023-02-04T15:08:16;4.97;;;2.50;;
74100;SDS011;62462;52.530;21.682;2023-02-04T15:10:42;4.00;;;2.43;;
74100;SDS011;62462;52.530;21.682;2023-02-04T15:13:08;9.90;;;3.07;;
74100;SDS011;62462;52.530;21.682;2023-02-04T15:15:34;5.70;;;2.23;;
74100;SDS011;62462;52.530;21.682;2023-02-04T15:17:59;4.93;;;2.10;;
74100;SDS011;62462;52.530;21.682;2023-02-04T15:20:25;7.97;;;1.90;;